Time;durP1;ratioP1;P1;durP2;ratioP2;P2;SDS_P1;SDS_P2;PMS_P1;PMS_P2;Temp;Humidity;BMP_temperature;BMP_pressure;BME280_temperature;BME280_humidity;BME280_pressure;Samples;Min_cycle;Max_cycle;Signal;HPM_P1;HPM_P2
2021/08/31 00:00:54;;;;;;;0.30;0.30;;;14.90;99.90;;;;;;5053004;28;20409;-70
2021/08/31 00:03:20;;;;;;;0.30;0.30;;;15.00;99.90;;;;;;5052990;28;20178;-68
2021/08/31 00:05:46;;;;;;;0.30;0.30;;;15.10;99.90;;;;;;5052521;28;20640;-70
2021/08/31 00:08:12;;;;;;;0.30;0.30;;;15.10;99.90;;;;;;5052811;28;20182;-70
2021/08/31 00:10:37;;;;;;;0.30;0.30;;;15.10;99.90;;;;;;5052806;28;20408;-70
2021/08/31 00:13:03;;;;;;;0.30;0.30;;;15.10;99.90;;;;;;5053543;28;20682;-67
2021/08/31 00:15:29;;;;;;;0.30;0.30;;;15.20;99.90;;;;;;5056167;28;20194;-70
2021/08/31 00:17:56;;;;;;;0.30;0.30;;;15.10;99.90;;;;;;5056527;28;20408;-69
2021/08/31 00:20:22;;;;;;;0.40;0.40;;;15.10;99.90;;;;;;5056286;28;20173;-68
2021/08/31 00:22:47;;;;;;;0.87;0.87;;;15.00;99.90;;;;;;5056288;28;20401;-69
2021/08/31 00:25:13;;;;;;;0.30;0.30;;;14.90;99.90;;;;;;5056176;28;20194;-68
2021/08/31 00:27:39;;;;;;;0.30;0.30;;;14.80;99.90;;;;;;5056156;28;20175;-69
2021/08/31 00:30:05;;;;;;;0.30;0.30;;;14.80;99.90;;;;;;5056332;28;20174;-70
2021/08/31 00:32:31;;;;;;;0.30;0.30;;;14.80;99.90;;;;;;5056219;28;20170;-70
2021/08/31 00:34:57;;;;;;;0.30;0.30;;;14.80;99.90;;;;;;5055981;28;20447;-68
2021/08/31 00:37:22;;;;;;;0.30;0.30;;;14.80;99.90;;;;;;5055894;28;20171;-68
2021/08/31 00:39:48;;;;;;;0.30;0.30;;;14.80;99.90;;;;;;5056029;28;20178;-68
2021/08/31 00:42:14;;;;;;;0.30;0.30;;;14.80;99.90;;;;;;5055902;28;20178;-66
2021/08/31 00:44:39;;;;;;;0.50;0.50;;;14.90;99.90;;;;;;5055774;28;20197;-68
2021/08/31 00:47:05;;;;;;;0.30;0.30;;;14.90;99.90;;;;;;5055895;28;20408;-67
2021/08/31 00:49:32;;;;;;;0.30;0.30;;;14.90;99.90;;;;;;5055740;28;20181;-70
2021/08/31 00:51:59;;;;;;;0.30;0.30;;;14.90;99.90;;;;;;5055927;28;20240;-70
2021/08/31 00:54:26;;;;;;;0.30;0.30;;;15.00;99.90;;;;;;5055778;28;20826;-69
2021/08/31 00:56:52;;;;;;;0.30;0.30;;;14.90;99.90;;;;;;5055504;28;20922;-68
2021/08/31 00:59:21;;;;;;;0.30;0.30;;;14.90;99.90;;;;;;5055522;28;20401;-70
2021/08/31 01:01:52;;;;;;;0.30;0.30;;;14.90;99.90;;;;;;5055712;28;20419;-70
2021/08/31 01:04:18;;;;;;;0.30;0.30;;;14.90;99.90;;;;;;5055459;28;20429;-68
2021/08/31 01:06:45;;;;;;;0.30;0.30;;;14.90;99.90;;;;;;5055337;28;20400;-69
2021/08/31 01:09:12;;;;;;;0.60;0.60;;;14.90;99.90;;;;;;5055624;28;20415;-69
2021/08/31 01:11:37;;;;;;;0.30;0.30;;;14.90;99.90;;;;;;5055507;28;20404;-67
2021/08/31 01:14:06;;;;;;;0.30;0.30;;;14.90;99.90;;;;;;5055378;28;20861;-69
2021/08/31 01:16:31;;;;;;;0.30;0.30;;;14.90;99.90;;;;;;5055078;28;20243;-70
2021/08/31 01:18:57;;;;;;;0.30;0.30;;;14.90;99.90;;;;;;5055617;28;20882;-68
2021/08/31 01:21:23;;;;;;;0.30;0.30;;;14.90;99.90;;;;;;5055283;28;20170;-70
2021/08/31 01:23:49;;;;;;;0.30;0.30;;;14.80;99.90;;;;;;5055217;28;20174;-70
2021/08/31 01:26:16;;;;;;;0.33;0.33;;;14.80;99.90;;;;;;5054665;28;20636;-67
2021/08/31 01:28:42;;;;;;;0.30;0.30;;;14.80;99.90;;;;;;5055181;28;20396;-69
2021/08/31 01:31:09;;;;;;;0.30;0.30;;;14.70;99.90;;;;;;5054978;28;20412;-68
2021/08/31 01:33:35;;;;;;;0.30;0.30;;;14.50;99.90;;;;;;5054801;28;20456;-68
2021/08/31 01:36:21;;;;;;;0.30;0.30;;;14.50;99.90;;;;;;5054644;28;20455;-70
2021/08/31 01:38:56;;;;;;;0.30;0.30;;;14.50;99.90;;;;;;5055082;28;20393;-68
2021/08/31 01:41:22;;;;;;;0.30;0.30;;;14.40;99.90;;;;;;5054950;28;20432;-69
2021/08/31 01:43:49;;;;;;;0.30;0.30;;;14.50;99.90;;;;;;5054915;28;20484;-68
2021/08/31 01:46:15;;;;;;;0.30;0.30;;;14.50;99.90;;;;;;5054489;28;20438;-68
2021/08/31 01:48:41;;;;;;;0.30;0.30;;;14.50;99.90;;;;;;5054767;28;20499;-69
2021/08/31 01:51:07;;;;;;;0.30;0.30;;;14.50;99.90;;;;;;5054771;28;20178;-70
2021/08/31 01:53:36;;;;;;;0.30;0.30;;;14.60;99.90;;;;;;5054645;28;20281;-68
2021/08/31 01:56:03;;;;;;;0.77;0.77;;;14.60;99.90;;;;;;5054214;28;20186;-69
2021/08/31 01:58:50;;;;;;;0.30;0.30;;;14.50;99.90;;;;;;5054437;28;20827;-68
2021/08/31 02:01:15;;;;;;;0.30;0.30;;;14.50;99.90;;;;;;5054685;28;20436;-69
2021/08/31 02:03:41;;;;;;;0.30;0.30;;;14.50;99.90;;;;;;5054413;28;20416;-68
2021/08/31 02:06:08;;;;;;;0.30;0.30;;;14.40;99.90;;;;;;5054193;28;20180;-68
2021/08/31 02:08:33;;;;;;;0.30;0.30;;;14.40;99.90;;;;;;5054427;28;20228;-70
2021/08/31 02:10:59;;;;;;;0.30;0.30;;;14.50;99.90;;;;;;5053001;28;20424;-69
2021/08/31 02:13:24;;;;;;;1.00;0.80;;;14.50;99.90;;;;;;5054173;28;20590;-69
2021/08/31 02:15:50;;;;;;;0.30;0.30;;;14.40;99.90;;;;;;5053904;28;20190;-69
2021/08/31 02:18:16;;;;;;;0.30;0.30;;;14.30;99.90;;;;;;5054025;28;20173;-69
2021/08/31 02:20:41;;;;;;;0.30;0.30;;;14.30;99.90;;;;;;5054249;28;20204;-70
2021/08/31 02:23:07;;;;;;;0.30;0.30;;;14.30;99.90;;;;;;5054244;28;20178;-70
2021/08/31 02:25:33;;;;;;;0.30;0.30;;;14.30;99.90;;;;;;5053766;28;20240;-70
2021/08/31 02:27:59;;;;;;;0.30;0.30;;;14.30;99.90;;;;;;5054054;28;20193;-69
2021/08/31 02:30:24;;;;;;;0.30;0.30;;;14.30;99.90;;;;;;5054022;28;20182;-68
2021/08/31 02:32:51;;;;;;;0.30;0.30;;;14.20;99.90;;;;;;5052582;28;20214;-67
2021/08/31 02:35:17;;;;;;;0.30;0.30;;;14.20;99.90;;;;;;5053984;28;20269;-69
2021/08/31 02:37:43;;;;;;;0.30;0.30;;;14.20;99.90;;;;;;5052747;28;20408;-69
2021/08/31 02:40:10;;;;;;;0.30;0.30;;;14.20;99.90;;;;;;5053762;28;20824;-69
2021/08/31 02:42:36;;;;;;;0.30;0.30;;;14.20;99.90;;;;;;5054145;28;20404;-70
2021/08/31 02:45:02;;;;;;;0.40;0.40;;;14.10;99.90;;;;;;5053641;28;20442;-68
2021/08/31 02:47:29;;;;;;;0.30;0.30;;;14.10;99.90;;;;;;5053645;28;20170;-69
2021/08/31 02:49:54;;;;;;;0.30;0.30;;;13.90;99.90;;;;;;5053760;28;20404;-67
2021/08/31 02:52:20;;;;;;;0.30;0.30;;;13.90;99.90;;;;;;5053637;28;20914;-67
2021/08/31 02:54:45;;;;;;;0.30;0.30;;;13.80;99.90;;;;;;5053470;28;20190;-69
2021/08/31 02:57:11;;;;;;;0.30;0.30;;;13.70;99.90;;;;;;5053455;28;20170;-70
2021/08/31 02:59:37;;;;;;;0.40;0.40;;;13.50;99.90;;;;;;5053672;28;20174;-69
2021/08/31 03:02:06;;;;;;;0.30;0.30;;;13.30;99.90;;;;;;5053663;28;20196;-67
2021/08/31 03:04:37;;;;;;;0.30;0.30;;;13.20;99.90;;;;;;5053441;28;20440;-67
2021/08/31 03:07:08;;;;;;;0.30;0.30;;;13.30;99.90;;;;;;5051919;28;20407;-70
2021/08/31 03:09:34;;;;;;;0.30;0.30;;;13.20;99.90;;;;;;5053383;28;20494;-68
2021/08/31 03:12:00;;;;;;;0.30;0.30;;;13.20;99.90;;;;;;5053381;28;20408;-69
2021/08/31 03:14:26;;;;;;;0.40;0.40;;;13.20;99.90;;;;;;5053253;28;20496;-68
2021/08/31 03:16:52;;;;;;;0.30;0.30;;;13.10;99.90;;;;;;5053180;28;20409;-70
2021/08/31 03:19:20;;;;;;;0.30;0.30;;;13.20;99.90;;;;;;5053285;28;20432;-70
2021/08/31 03:21:47;;;;;;;0.30;0.30;;;13.10;99.90;;;;;;5053297;28;20404;-69
2021/08/31 03:24:12;;;;;;;0.30;0.30;;;13.10;99.90;;;;;;5053113;28;20463;-69
2021/08/31 03:26:38;;;;;;;0.30;0.30;;;13.10;99.90;;;;;;5053042;28;20439;-70
2021/08/31 03:29:04;;;;;;;0.30;0.30;;;13.20;99.90;;;;;;5053325;28;20178;-68
2021/08/31 03:31:30;;;;;;;0.30;0.30;;;13.30;99.90;;;;;;5053454;28;20629;-69
2021/08/31 03:33:55;;;;;;;0.30;0.30;;;13.30;99.90;;;;;;5053175;28;20531;-69
2021/08/31 03:36:21;;;;;;;0.30;0.30;;;13.20;99.90;;;;;;5052989;28;20184;-68
2021/08/31 03:38:46;;;;;;;0.60;0.60;;;13.10;99.90;;;;;;5053307;28;20570;-68
2021/08/31 03:41:12;;;;;;;0.30;0.30;;;13.00;99.90;;;;;;5053142;28;20173;-67
2021/08/31 03:43:39;;;;;;;0.30;0.30;;;12.90;99.90;;;;;;5053000;28;20170;-68
2021/08/31 03:46:04;;;;;;;0.30;0.30;;;12.80;99.90;;;;;;5052800;28;20198;-67
2021/08/31 03:48:30;;;;;;;0.30;0.30;;;12.80;99.90;;;;;;5054699;28;20408;-67
2021/08/31 03:50:56;;;;;;;0.30;0.30;;;12.80;99.90;;;;;;5056902;28;20174;-68
2021/08/31 03:53:21;;;;;;;0.30;0.30;;;12.80;99.90;;;;;;5056811;28;20286;-68
2021/08/31 03:55:47;;;;;;;0.30;0.30;;;12.70;99.90;;;;;;5056723;28;20197;-70
2021/08/31 03:58:12;;;;;;;0.30;0.30;;;12.70;99.90;;;;;;5056838;28;20177;-67
2021/08/31 04:00:38;;;;;;;0.57;0.57;;;12.70;99.90;;;;;;5055646;28;20660;-67
2021/08/31 04:03:04;;;;;;;1.07;1.00;;;12.60;99.90;;;;;;5056867;28;20171;-67
2021/08/31 04:05:29;;;;;;;0.30;0.30;;;12.60;99.90;;;;;;5056420;28;20202;-67
2021/08/31 04:07:56;;;;;;;0.30;0.30;;;12.60;99.90;;;;;;5056987;28;20639;-69
2021/08/31 04:10:21;;;;;;;0.50;0.50;;;12.70;99.90;;;;;;5056639;28;20174;-69
2021/08/31 04:12:47;;;;;;;0.30;0.30;;;12.70;99.90;;;;;;5056593;28;20444;-69
2021/08/31 04:15:13;;;;;;;0.30;0.30;;;12.70;99.90;;;;;;5056406;28;20202;-68
2021/08/31 04:17:39;;;;;;;0.30;0.30;;;12.60;99.90;;;;;;5056222;28;20254;-67
2021/08/31 04:20:05;;;;;;;0.30;0.30;;;12.60;99.90;;;;;;5056390;28;20396;-70
2021/08/31 04:22:31;;;;;;;0.30;0.30;;;12.50;99.90;;;;;;5056275;28;20193;-67
2021/08/31 04:24:57;;;;;;;0.30;0.30;;;12.60;99.90;;;;;;5056342;28;20429;-69
2021/08/31 04:27:23;;;;;;;0.30;0.30;;;12.60;99.90;;;;;;5056027;28;20404;-70
2021/08/31 04:29:48;;;;;;;0.30;0.30;;;12.70;99.90;;;;;;5056363;28;20192;-67
2021/08/31 04:32:14;;;;;;;0.33;0.33;;;12.60;99.90;;;;;;5055584;28;20529;-69
2021/08/31 04:34:40;;;;;;;0.30;0.30;;;12.70;99.90;;;;;;5055933;28;20206;-69
2021/08/31 04:37:05;;;;;;;0.30;0.30;;;12.80;99.90;;;;;;5056056;28;20178;-67
2021/08/31 04:39:31;;;;;;;0.30;0.30;;;12.80;99.90;;;;;;5056137;28;20209;-68
2021/08/31 04:42:02;;;;;;;0.40;0.40;;;12.90;99.90;;;;;;5056373;28;20554;-70
2021/08/31 04:44:32;;;;;;;0.30;0.30;;;13.00;99.90;;;;;;5055887;28;20194;-68
2021/08/31 04:46:58;;;;;;;0.30;0.30;;;13.10;99.90;;;;;;5055585;28;20428;-67
2021/08/31 04:49:23;;;;;;;0.30;0.30;;;13.00;99.90;;;;;;5055849;28;20951;-70
2021/08/31 04:51:49;;;;;;;0.30;0.30;;;12.90;99.90;;;;;;5055858;28;20261;-69
2021/08/31 04:54:15;;;;;;;0.30;0.30;;;13.00;99.90;;;;;;5055700;28;20461;-67
2021/08/31 04:56:41;;;;;;;0.30;0.30;;;13.10;99.90;;;;;;5055529;28;20405;-67
2021/08/31 04:59:06;;;;;;;0.30;0.30;;;13.10;99.90;;;;;;5055483;28;20176;-70
2021/08/31 05:01:32;;;;;;;0.30;0.30;;;13.10;99.90;;;;;;5054978;28;20507;-68
2021/08/31 05:03:58;;;;;;;0.30;0.30;;;13.30;99.90;;;;;;5055440;28;20166;-69
2021/08/31 05:06:23;;;;;;;0.30;0.30;;;13.40;99.90;;;;;;5055334;28;20539;-69
2021/08/31 05:08:49;;;;;;;0.30;0.30;;;13.50;99.90;;;;;;5055704;28;20543;-69
2021/08/31 05:11:15;;;;;;;0.30;0.30;;;13.60;99.90;;;;;;5055578;28;20174;-67
2021/08/31 05:13:41;;;;;;;0.30;0.30;;;13.60;99.90;;;;;;5055208;28;20201;-69
2021/08/31 05:16:12;;;;;;;0.30;0.30;;;13.70;99.90;;;;;;5055131;28;20776;-67
2021/08/31 05:18:38;;;;;;;1.03;1.03;;;13.60;99.90;;;;;;5055472;28;20178;-68
2021/08/31 05:21:04;;;;;;;0.30;0.30;;;13.70;99.90;;;;;;5055467;28;20401;-70
2021/08/31 05:23:32;;;;;;;0.30;0.30;;;13.80;99.90;;;;;;5055306;28;20228;-70
2021/08/31 05:25:57;;;;;;;0.30;0.30;;;13.80;99.90;;;;;;5054909;28;20432;-69
2021/08/31 05:28:23;;;;;;;0.30;0.30;;;13.80;99.90;;;;;;5055234;28;20411;-69
2021/08/31 05:30:49;;;;;;;0.30;0.30;;;13.90;99.90;;;;;;5055021;28;20181;-70
2021/08/31 05:33:14;;;;;;;0.30;0.30;;;14.00;99.90;;;;;;5055346;28;20220;-68
2021/08/31 05:35:40;;;;;;;0.30;0.30;;;14.20;99.90;;;;;;5054768;28;20198;-69
2021/08/31 05:38:06;;;;;;;0.30;0.30;;;14.20;99.90;;;;;;5055017;28;20166;-67
2021/08/31 05:40:31;;;;;;;0.40;0.40;;;14.30;99.90;;;;;;5055046;28;20529;-68
2021/08/31 05:42:57;;;;;;;0.30;0.30;;;14.40;99.90;;;;;;5054937;28;20209;-67
2021/08/31 05:45:23;;;;;;;0.30;0.30;;;14.60;99.90;;;;;;5054387;28;20292;-69
2021/08/31 05:47:48;;;;;;;0.30;0.30;;;14.70;99.90;;;;;;5054761;28;20631;-70
2021/08/31 05:50:14;;;;;;;0.30;0.30;;;14.80;99.90;;;;;;5054871;28;20196;-70
2021/08/31 05:52:40;;;;;;;0.30;0.30;;;14.70;99.90;;;;;;5054656;28;20178;-68
2021/08/31 05:55:06;;;;;;;0.30;0.30;;;14.80;99.90;;;;;;5054805;28;20198;-68
2021/08/31 05:57:32;;;;;;;0.30;0.30;;;14.90;99.90;;;;;;5053055;28;20187;-68
2021/08/31 05:59:57;;;;;;;0.30;0.30;;;15.00;99.90;;;;;;5054432;28;20412;-68
2021/08/31 06:02:23;;;;;;;0.30;0.30;;;15.10;99.90;;;;;;5054478;28;20508;-67
2021/08/31 06:04:49;;;;;;;0.30;0.30;;;15.30;99.90;;;;;;5054646;28;20194;-68
2021/08/31 06:07:14;;;;;;;0.30;0.30;;;15.50;99.90;;;;;;5054495;28;20178;-70
2021/08/31 06:09:41;;;;;;;0.30;0.30;;;15.70;99.90;;;;;;5054509;28;20195;-67
2021/08/31 06:12:10;;;;;;;0.40;0.40;;;16.00;99.90;;;;;;5054322;28;20245;-68
2021/08/31 06:14:36;;;;;;;0.30;0.30;;;16.30;99.90;;;;;;5054104;28;20461;-70
2021/08/31 06:17:03;;;;;;;0.30;0.30;;;16.60;99.10;;;;;;5054051;28;20467;-70
2021/08/31 06:19:28;;;;;;;0.80;0.80;;;16.90;97.60;;;;;;5054238;28;20170;-69
2021/08/31 06:21:54;;;;;;;0.30;0.30;;;17.40;98.40;;;;;;5054233;28;20894;-69
2021/08/31 06:24:20;;;;;;;0.30;0.30;;;17.80;97.00;;;;;;5054213;28;20667;-70
2021/08/31 06:26:46;;;;;;;0.30;0.30;;;17.90;94.50;;;;;;5053733;28;20183;-69
2021/08/31 06:29:12;;;;;;;0.30;0.30;;;18.00;95.10;;;;;;5053985;28;20408;-68
2021/08/31 06:31:37;;;;;;;0.30;0.30;;;18.10;95.20;;;;;;5053949;28;20772;-69
2021/08/31 06:34:03;;;;;;;0.30;0.30;;;18.10;94.60;;;;;;5053823;28;20666;-68
2021/08/31 06:36:29;;;;;;;0.30;0.30;;;18.20;94.60;;;;;;5053670;28;20417;-70
2021/08/31 06:38:54;;;;;;;0.30;0.30;;;18.00;93.30;;;;;;5053936;28;20173;-69
2021/08/31 06:41:20;;;;;;;0.30;0.30;;;17.90;94.40;;;;;;5053692;28;20177;-67
2021/08/31 06:43:46;;;;;;;0.30;0.30;;;17.80;94.20;;;;;;5053590;28;20174;-67
2021/08/31 06:46:16;;;;;;;0.30;0.30;;;17.60;95.10;;;;;;5053401;28;20642;-70
2021/08/31 06:48:43;;;;;;;0.30;0.30;;;17.40;96.20;;;;;;5053670;28;20413;-69
2021/08/31 06:51:14;;;;;;;0.40;0.40;;;17.50;95.80;;;;;;5052721;28;20811;-70
2021/08/31 06:53:40;;;;;;;0.30;0.30;;;17.70;95.80;;;;;;5051506;28;20456;-70
2021/08/31 06:56:06;;;;;;;0.30;0.30;;;17.80;95.70;;;;;;5051388;28;20893;-69
2021/08/31 06:58:32;;;;;;;0.30;0.30;;;17.90;95.40;;;;;;5051539;28;20413;-67
2021/08/31 07:00:58;;;;;;;0.30;0.30;;;17.80;94.80;;;;;;5051591;28;20401;-69
2021/08/31 07:03:23;;;;;;;0.30;0.30;;;17.90;95.20;;;;;;5049927;28;20405;-68
2021/08/31 07:05:49;;;;;;;0.30;0.30;;;18.00;95.00;;;;;;5050701;28;20511;-69
2021/08/31 07:08:15;;;;;;;0.30;0.30;;;17.80;95.00;;;;;;5051442;28;20182;-70
2021/08/31 07:10:41;;;;;;;0.30;0.30;;;17.60;94.30;;;;;;5052065;28;20182;-70
2021/08/31 07:13:06;;;;;;;0.30;0.30;;;17.30;94.00;;;;;;5052026;28;20254;-70
2021/08/31 07:15:32;;;;;;;0.30;0.30;;;17.10;94.70;;;;;;5051863;28;20260;-67
2021/08/31 07:17:59;;;;;;;0.30;0.30;;;17.10;95.50;;;;;;5050790;28;20211;-69
2021/08/31 07:20:25;;;;;;;0.30;0.30;;;16.90;94.80;;;;;;5053224;28;20255;-70
2021/08/31 07:22:51;;;;;;;0.30;0.30;;;16.90;95.70;;;;;;5053990;28;20494;-70
2021/08/31 07:25:16;;;;;;;0.30;0.30;;;16.80;96.40;;;;;;5057295;28;20872;-68
2021/08/31 07:27:42;;;;;;;0.30;0.30;;;17.00;95.50;;;;;;5057213;28;20173;-67
2021/08/31 07:30:09;;;;;;;0.30;0.30;;;17.00;95.70;;;;;;5057391;28;20532;-68
2021/08/31 07:32:34;;;;;;;0.30;0.30;;;17.00;94.50;;;;;;5057323;28;20216;-69
2021/08/31 07:35:00;;;;;;;0.30;0.30;;;17.10;94.40;;;;;;5055788;28;20835;-70
2021/08/31 07:37:26;;;;;;;0.30;0.30;;;17.20;94.30;;;;;;5055819;28;20174;-69
2021/08/31 07:39:52;;;;;;;0.30;0.30;;;16.90;94.40;;;;;;5057084;28;20166;-69
2021/08/31 07:42:17;;;;;;;0.30;0.30;;;16.70;94.80;;;;;;5057142;28;20164;-68
2021/08/31 07:44:43;;;;;;;0.30;0.30;;;16.80;95.50;;;;;;5056833;28;20267;-67
2021/08/31 07:47:09;;;;;;;0.30;0.30;;;16.80;95.40;;;;;;5057036;28;20638;-70
2021/08/31 07:49:35;;;;;;;0.30;0.30;;;16.60;96.40;;;;;;5056932;28;20312;-70
2021/08/31 07:52:01;;;;;;;0.30;0.30;;;16.40;97.20;;;;;;5057076;28;20463;-68
2021/08/31 07:54:27;;;;;;;0.30;0.30;;;16.60;96.30;;;;;;5056925;28;20494;-70
2021/08/31 07:56:53;;;;;;;0.30;0.30;;;16.70;96.80;;;;;;5056822;28;20490;-69
2021/08/31 07:59:18;;;;;;;0.30;0.30;;;16.50;96.10;;;;;;5056880;28;20168;-70
2021/08/31 08:01:44;;;;;;;0.30;0.30;;;16.80;97.20;;;;;;5056957;28;20204;-67
2021/08/31 08:04:10;;;;;;;0.30;0.30;;;16.90;96.90;;;;;;5056787;28;20231;-69
2021/08/31 08:06:36;;;;;;;0.30;0.30;;;17.20;96.30;;;;;;5055211;28;20181;-68
2021/08/31 08:09:03;;;;;;;0.30;0.30;;;17.30;94.80;;;;;;5056830;28;20411;-70
2021/08/31 08:11:28;;;;;;;0.30;0.30;;;17.40;94.50;;;;;;5056554;28;20400;-68
2021/08/31 08:13:54;;;;;;;0.30;0.30;;;17.70;95.00;;;;;;5056449;28;20448;-68
2021/08/31 08:16:20;;;;;;;0.30;0.30;;;18.00;94.00;;;;;;5056459;28;20178;-68
2021/08/31 08:18:48;;;;;;;0.30;0.30;;;18.10;94.10;;;;;;5056440;28;20212;-67
2021/08/31 08:21:14;;;;;;;0.30;0.30;;;18.20;93.30;;;;;;5056589;28;20764;-67
2021/08/31 08:23:40;;;;;;;0.30;0.30;;;18.50;94.70;;;;;;5056527;28;20413;-67
2021/08/31 08:26:07;;;;;;;0.30;0.30;;;18.80;94.50;;;;;;5056335;28;20420;-68
2021/08/31 08:28:32;;;;;;;0.30;0.30;;;19.00;92.80;;;;;;5056280;28;20168;-67
2021/08/31 08:30:58;;;;;;;0.30;0.30;;;18.80;92.10;;;;;;5056336;28;20495;-70
2021/08/31 08:33:24;;;;;;;0.30;0.30;;;18.90;93.40;;;;;;5056033;28;20442;-69
2021/08/31 08:35:50;;;;;;;0.30;0.30;;;19.10;93.10;;;;;;5054322;28;20195;-68
2021/08/31 08:38:18;;;;;;;0.30;0.30;;;19.40;92.60;;;;;;5056206;28;20484;-70
2021/08/31 08:40:44;;;;;;;0.30;0.30;;;19.60;91.60;;;;;;5056060;28;20404;-69
2021/08/31 08:43:14;;;;;;;0.30;0.30;;;19.70;90.60;;;;;;5055975;28;20449;-67
2021/08/31 08:45:44;;;;;;;0.30;0.30;;;19.50;91.20;;;;;;5055498;28;20481;-69
2021/08/31 08:48:24;;;;;;;0.30;0.30;;;19.40;91.10;;;;;;5056018;28;20922;-68
2021/08/31 08:50:54;;;;;;;0.30;0.30;;;19.20;91.90;;;;;;5055824;28;20448;-68
2021/08/31 08:53:20;;;;;;;0.30;0.30;;;19.10;91.20;;;;;;5055750;28;20440;-67
2021/08/31 08:55:47;;;;;;;0.30;0.30;;;19.00;91.30;;;;;;5055527;28;20424;-69
2021/08/31 08:58:13;;;;;;;0.50;0.50;;;19.00;91.00;;;;;;5055916;28;20531;-69
2021/08/31 09:01:01;;;;;;;0.30;0.30;;;19.20;92.00;;;;;;5055863;28;20944;-66
2021/08/31 09:03:28;;;;;;;0.30;0.30;;;19.40;90.70;;;;;;5054374;28;20177;-69
2021/08/31 09:06:16;;;;;;;0.30;0.30;;;19.50;91.70;;;;;;5055159;28;20431;-67
2021/08/31 09:09:04;;;;;;;0.30;0.30;;;19.50;91.30;;;;;;5055689;28;20425;-70
2021/08/31 09:11:49;;;;;;;0.30;0.30;;;19.40;94.40;;;;;;5055402;28;20417;-69
2021/08/31 09:14:20;;;;;;;0.30;0.30;;;19.00;95.00;;;;;;5055509;28;21003;-70
2021/08/31 09:16:49;;;;;;;0.30;0.30;;;19.70;95.00;;;;;;5055295;28;20396;-68
2021/08/31 09:19:15;;;;;;;0.30;0.30;;;20.40;93.30;;;;;;5055450;28;20760;-68
2021/08/31 09:21:44;;;;;;;0.30;0.30;;;21.30;92.90;;;;;;5055433;28;20397;-70
2021/08/31 09:24:11;;;;;;;0.30;0.30;;;22.70;91.60;;;;;;5053837;28;20904;-69
2021/08/31 09:26:39;;;;;;;0.30;0.30;;;24.80;90.40;;;;;;5054869;28;20405;-67
2021/08/31 09:29:13;;;;;;;0.30;0.30;;;25.50;82.80;;;;;;5055177;28;20965;-68
2021/08/31 09:31:56;;;;;;;0.30;0.30;;;25.70;81.40;;;;;;5055159;28;20838;-70
2021/08/31 09:34:43;;;;;;;0.30;0.30;;;25.80;84.70;;;;;;5054788;28;20493;-68
2021/08/31 09:37:36;;;;;;;0.30;0.30;;;25.70;83.20;;;;;;5054903;28;20895;-70
2021/08/31 09:40:08;;;;;;;0.30;0.30;;;24.80;79.80;;;;;;5053560;28;20383;-69
2021/08/31 09:42:35;;;;;;;0.30;0.30;;;23.70;79.10;;;;;;5054919;28;20804;-70
2021/08/31 09:45:06;;;;;;;0.30;0.30;;;22.60;79.80;;;;;;5054824;28;20446;-70
2021/08/31 09:47:36;;;;;;;0.30;0.30;;;22.00;86.50;;;;;;5054294;28;20411;-70
2021/08/31 09:50:06;;;;;;;1.60;1.50;;;21.20;88.00;;;;;;5054798;28;20410;-68
2021/08/31 09:52:32;;;;;;;0.30;0.30;;;20.40;88.40;;;;;;5054740;28;20412;-70
2021/08/31 09:54:58;;;;;;;0.30;0.30;;;19.90;91.70;;;;;;5054607;28;20935;-68
2021/08/31 09:57:28;;;;;;;0.30;0.30;;;19.60;92.80;;;;;;5054408;28;20408;-67
2021/08/31 09:59:54;;;;;;;0.30;0.30;;;19.30;92.40;;;;;;5054550;28;20619;-67
2021/08/31 10:02:20;;;;;;;0.30;0.30;;;19.00;93.60;;;;;;5054557;28;20895;-68
2021/08/31 10:04:46;;;;;;;0.30;0.30;;;18.60;93.60;;;;;;5054348;28;20421;-67
2021/08/31 10:07:13;;;;;;;0.30;0.30;;;18.30;93.90;;;;;;5054280;28;20170;-70
2021/08/31 10:09:39;;;;;;;0.30;0.30;;;18.20;94.80;;;;;;5054456;28;20166;-67
2021/08/31 10:12:09;;;;;;;0.30;0.30;;;18.10;95.80;;;;;;5054535;28;20414;-69
2021/08/31 10:14:43;;;;;;;0.30;0.30;;;18.10;95.10;;;;;;5054165;28;20537;-70
2021/08/31 10:17:12;;;;;;;0.30;0.30;;;18.20;93.60;;;;;;5054053;28;20420;-69
2021/08/31 10:19:42;;;;;;;0.30;0.30;;;18.50;93.30;;;;;;5054004;28;20407;-70
2021/08/31 10:22:12;;;;;;;0.30;0.30;;;18.80;93.10;;;;;;5054258;28;20761;-68
2021/08/31 10:24:45;;;;;;;0.30;0.30;;;19.30;92.00;;;;;;5053966;28;20428;-70
2021/08/31 10:27:39;;;;;;;0.30;0.30;;;19.80;92.50;;;;;;5054079;28;20457;-67
2021/08/31 10:30:20;;;;;;;0.30;0.30;;;21.10;88.00;;;;;;5053797;28;20483;-70
2021/08/31 10:32:50;;;;;;;0.30;0.30;;;22.40;88.20;;;;;;5053988;28;20768;-67
2021/08/31 10:35:31;;;;;;;0.30;0.30;;;23.00;87.10;;;;;;5054094;28;20413;-67
2021/08/31 10:38:02;;;;;;;0.30;0.30;;;23.20;82.60;;;;;;5053914;28;20394;-70
2021/08/31 10:40:35;;;;;;;0.30;0.30;;;23.00;82.60;;;;;;5053840;28;20739;-68
2021/08/31 10:43:03;;;;;;;0.30;0.30;;;22.70;85.80;;;;;;5053942;28;20490;-68
2021/08/31 10:45:30;;;;;;;0.30;0.30;;;22.70;81.40;;;;;;5053259;28;20823;-69
2021/08/31 10:47:56;;;;;;;0.30;0.30;;;22.80;82.20;;;;;;5053611;28;20380;-69
2021/08/31 10:50:24;;;;;;;0.30;0.30;;;22.90;82.30;;;;;;5053831;28;20409;-68
2021/08/31 10:53:03;;;;;;;0.30;0.30;;;23.00;81.40;;;;;;5053724;28;20488;-67
2021/08/31 10:55:29;;;;;;;0.30;0.30;;;23.00;82.60;;;;;;5053355;28;20420;-69
2021/08/31 10:58:00;;;;;;;0.30;0.30;;;22.80;82.70;;;;;;5052796;28;20405;-69
2021/08/31 11:00:25;;;;;;;0.30;0.30;;;22.50;82.50;;;;;;5053487;28;20582;-69
2021/08/31 11:02:53;;;;;;;0.30;0.30;;;22.10;82.80;;;;;;5053518;28;20396;-69
2021/08/31 11:05:22;;;;;;;0.30;0.30;;;21.80;83.00;;;;;;5053516;28;20217;-69
2021/08/31 11:07:50;;;;;;;0.30;0.30;;;21.60;81.50;;;;;;5053496;28;20407;-70
2021/08/31 11:10:34;;;;;;;0.40;0.40;;;21.40;84.70;;;;;;5053571;28;20844;-70
2021/08/31 11:13:11;;;;;;;0.30;0.30;;;21.20;84.90;;;;;;5053639;28;20851;-68
2021/08/31 11:15:37;;;;;;;0.30;0.30;;;21.00;86.10;;;;;;5053044;28;20519;-70
2021/08/31 11:18:07;;;;;;;0.40;0.40;;;20.70;84.10;;;;;;5053477;28;20784;-70
2021/08/31 11:20:34;;;;;;;0.30;0.30;;;20.60;85.80;;;;;;5053424;28;20954;-69
2021/08/31 11:23:05;;;;;;;0.30;0.30;;;20.50;87.10;;;;;;5053210;28;20472;-68
2021/08/31 11:25:44;;;;;;;0.30;0.30;;;20.40;83.80;;;;;;5053120;28;20439;-69
2021/08/31 11:28:22;;;;;;;0.30;0.30;;;20.40;88.50;;;;;;5053350;28;20770;-70
2021/08/31 11:31:05;;;;;;;0.30;0.30;;;20.50;85.10;;;;;;5053341;28;20405;-69
2021/08/31 11:33:37;;;;;;;0.30;0.30;;;20.30;85.50;;;;;;5053310;28;20849;-68
2021/08/31 11:36:18;;;;;;;0.30;0.30;;;20.00;83.70;;;;;;5052878;28;20803;-69
2021/08/31 11:38:50;;;;;;;0.30;0.30;;;19.80;83.40;;;;;;5053243;28;20514;-69
2021/08/31 11:41:23;;;;;;;0.30;0.30;;;19.80;85.50;;;;;;5053313;28;20391;-68
2021/08/31 11:44:08;;;;;;;0.30;0.30;;;19.90;85.70;;;;;;5053003;28;20401;-69
2021/08/31 11:46:45;;;;;;;0.30;0.30;;;19.90;88.90;;;;;;5052725;28;20426;-70
2021/08/31 11:49:32;;;;;;;0.30;0.30;;;19.40;90.20;;;;;;5053244;28;20404;-70
2021/08/31 11:52:00;;;;;;;0.30;0.30;;;19.50;90.30;;;;;;5053246;28;20879;-70
2021/08/31 11:54:28;;;;;;;0.50;0.50;;;19.40;90.30;;;;;;5052826;28;20605;-69
2021/08/31 11:56:57;;;;;;;0.30;0.30;;;19.40;89.50;;;;;;5052802;28;20402;-70
2021/08/31 11:59:45;;;;;;;0.30;0.30;;;19.40;86.60;;;;;;5053022;28;20399;-68
2021/08/31 12:02:23;;;;;;;0.30;0.30;;;19.50;86.80;;;;;;5053028;28;20406;-69
2021/08/31 12:04:57;;;;;;;0.30;0.30;;;19.50;88.00;;;;;;5053399;28;20958;-70
2021/08/31 12:07:29;;;;;;;0.30;0.30;;;19.70;88.80;;;;;;5052726;28;20745;-70
2021/08/31 12:10:05;;;;;;;0.50;0.50;;;19.90;87.40;;;;;;5055258;28;20487;-68
2021/08/31 12:12:31;;;;;;;0.30;0.30;;;20.10;88.90;;;;;;5056767;28;20442;-70
2021/08/31 12:14:57;;;;;;;0.40;0.40;;;20.30;86.80;;;;;;5056641;28;20463;-68
2021/08/31 12:17:37;;;;;;;0.30;0.30;;;20.40;87.50;;;;;;5056323;28;20583;-69
2021/08/31 12:20:16;;;;;;;0.30;0.30;;;20.70;86.70;;;;;;5056642;28;20447;-68
2021/08/31 12:22:44;;;;;;;0.30;0.30;;;20.90;84.00;;;;;;5056539;28;20400;-68
2021/08/31 12:25:10;;;;;;;0.30;0.30;;;21.10;82.20;;;;;;5056455;28;20482;-68
2021/08/31 12:27:38;;;;;;;0.30;0.30;;;21.20;80.80;;;;;;5054895;28;20922;-70
2021/08/31 12:30:05;;;;;;;0.30;0.30;;;21.40;83.80;;;;;;5056329;28;20421;-68
2021/08/31 12:32:31;;;;;;;0.30;0.30;;;21.20;80.30;;;;;;5056566;28;20941;-68
2021/08/31 12:35:27;;;;;;;0.30;0.30;;;21.10;80.90;;;;;;5056029;28;20529;-69
2021/08/31 12:38:20;;;;;;;0.30;0.30;;;21.10;80.60;;;;;;5056369;28;20393;-69
2021/08/31 12:40:55;;;;;;;0.30;0.30;;;21.50;79.60;;;;;;5056351;28;20817;-70
2021/08/31 12:43:41;;;;;;;0.30;0.30;;;21.40;83.20;;;;;;5056142;28;20893;-69
2021/08/31 12:46:07;;;;;;;0.50;0.50;;;21.80;80.90;;;;;;5055557;28;20444;-68
2021/08/31 12:48:46;;;;;;;0.30;0.30;;;22.00;78.60;;;;;;5056301;28;20418;-69
2021/08/31 12:51:13;;;;;;;0.30;0.30;;;22.30;78.40;;;;;;5056236;28;20173;-68
2021/08/31 12:53:42;;;;;;;0.30;0.30;;;22.60;82.10;;;;;;5055847;28;20412;-68